sensor_id;sensor_type;location;lat;lon;timestamp;temperature;humidity
33863;DHT22;20158;51.436;-2.742;2022-09-12T00:00:27;18.60;66.60
33863;DHT22;20158;51.436;-2.742;2022-09-12T00:02:54;18.70;66.90
33863;DHT22;20158;51.436;-2.742;2022-09-12T00:05:21;18.70;67.00
33863;DHT22;20158;51.436;-2.742;2022-09-12T00:07:47;18.60;66.90
33863;DHT22;20158;51.436;-2.742;2022-09-12T00:10:14;18.60;66.90
33863;DHT22;20158;51.436;-2.742;2022-09-12T00:12:40;18.60;67.00
33863;DHT22;20158;51.436;-2.742;2022-09-12T00:15:09;18.60;67.00
33863;DHT22;20158;51.436;-2.742;2022-09-12T00:17:37;18.60;67.00
33863;DHT22;20158;51.436;-2.742;2022-09-12T00:20:05;18.60;67.10
33863;DHT22;20158;51.436;-2.742;2022-09-12T00:22:32;18.60;67.10
33863;DHT22;20158;51.436;-2.742;2022-09-12T00:24:58;18.60;67.10
33863;DHT22;20158;51.436;-2.742;2022-09-12T00:27:24;18.60;67.20
33863;DHT22;20158;51.436;-2.742;2022-09-12T00:29:50;18.50;67.10
33863;DHT22;20158;51.436;-2.742;2022-09-12T00:32:16;18.50;67.10
33863;DHT22;20158;51.436;-2.742;2022-09-12T00:34:42;18.50;67.20
33863;DHT22;20158;51.436;-2.742;2022-09-12T00:37:07;18.50;67.20
33863;DHT22;20158;51.436;-2.742;2022-09-12T00:39:33;18.50;67.30
33863;DHT22;20158;51.436;-2.742;2022-09-12T00:41:59;18.50;67.40
33863;DHT22;20158;51.436;-2.742;2022-09-12T00:46:56;18.50;67.50
33863;DHT22;20158;51.436;-2.742;2022-09-12T00:49:30;18.50;67.50
33863;DHT22;20158;51.436;-2.742;2022-09-12T00:52:02;18.50;67.50
33863;DHT22;20158;51.436;-2.742;2022-09-12T00:54:34;18.40;67.40
33863;DHT22;20158;51.436;-2.742;2022-09-12T00:57:05;18.40;68.10
33863;DHT22;20158;51.436;-2.742;2022-09-12T00:59:40;18.40;67.50
33863;DHT22;20158;51.436;-2.742;2022-09-12T01:02:10;18.40;67.50
33863;DHT22;20158;51.436;-2.742;2022-09-12T01:04:37;18.40;67.60
33863;DHT22;20158;51.436;-2.742;2022-09-12T01:07:07;18.40;67.60
33863;DHT22;20158;51.436;-2.742;2022-09-12T01:09:34;18.40;67.70
33863;DHT22;20158;51.436;-2.742;2022-09-12T01:12:02;18.30;67.60
33863;DHT22;20158;51.436;-2.742;2022-09-12T01:14:29;18.40;67.80
33863;DHT22;20158;51.436;-2.742;2022-09-12T01:16:56;18.30;67.70
33863;DHT22;20158;51.436;-2.742;2022-09-12T01:25:19;18.30;67.90
33863;DHT22;20158;51.436;-2.742;2022-09-12T01:33:24;18.30;67.90
33863;DHT22;20158;51.436;-2.742;2022-09-12T01:36:18;18.30;68.00
33863;DHT22;20158;51.436;-2.742;2022-09-12T01:39:13;18.20;67.80
33863;DHT22;20158;51.436;-2.742;2022-09-12T01:41:51;18.20;67.80
33863;DHT22;20158;51.436;-2.742;2022-09-12T01:50:17;18.20;68.00
33863;DHT22;20158;51.436;-2.742;2022-09-12T01:52:52;18.30;68.10
33863;DHT22;20158;51.436;-2.742;2022-09-12T01:55:32;18.20;68.00
33863;DHT22;20158;51.436;-2.742;2022-09-12T01:58:16;18.20;68.00
33863;DHT22;20158;51.436;-2.742;2022-09-12T02:01:00;18.20;68.10
33863;DHT22;20158;51.436;-2.742;2022-09-12T02:03:29;18.20;68.10
33863;DHT22;20158;51.436;-2.742;2022-09-12T02:06:02;18.20;68.00
33863;DHT22;20158;51.436;-2.742;2022-09-12T02:08:38;18.20;68.00
33863;DHT22;20158;51.436;-2.742;2022-09-12T02:11:08;18.20;68.10
33863;DHT22;20158;51.436;-2.742;2022-09-12T02:13:55;18.20;68.10
33863;DHT22;20158;51.436;-2.742;2022-09-12T02:16:32;18.20;68.30
33863;DHT22;20158;51.436;-2.742;2022-09-12T02:19:15;18.20;68.30
33863;DHT22;20158;51.436;-2.742;2022-09-12T02:21:45;18.20;68.30
33863;DHT22;20158;51.436;-2.742;2022-09-12T02:24:16;18.10;68.20
33863;DHT22;20158;51.436;-2.742;2022-09-12T02:27:02;18.20;68.40
33863;DHT22;20158;51.436;-2.742;2022-09-12T02:29:29;18.20;68.50
33863;DHT22;20158;51.436;-2.742;2022-09-12T02:32:02;18.20;68.40
33863;DHT22;20158;51.436;-2.742;2022-09-12T02:37:22;18.20;68.50
33863;DHT22;20158;51.436;-2.742;2022-09-12T02:39:54;18.20;68.60
33863;DHT22;20158;51.436;-2.742;2022-09-12T02:42:23;18.20;68.60
33863;DHT22;20158;51.436;-2.742;2022-09-12T02:44:51;18.20;68.60
33863;DHT22;20158;51.436;-2.742;2022-09-12T02:47:27;18.20;68.60
33863;DHT22;20158;51.436;-2.742;2022-09-12T02:49:55;18.10;68.50
33863;DHT22;20158;51.436;-2.742;2022-09-12T02:52:30;18.20;68.70
33863;DHT22;20158;51.436;-2.742;2022-09-12T02:54:59;18.20;68.70
33863;DHT22;20158;51.436;-2.742;2022-09-12T02:57:29;18.10;68.60
33863;DHT22;20158;51.436;-2.742;2022-09-12T02:59:57;18.10;68.70
33863;DHT22;20158;51.436;-2.742;2022-09-12T03:11:14;18.10;68.90
33863;DHT22;20158;51.436;-2.742;2022-09-12T03:19:08;18.10;69.00
33863;DHT22;20158;51.436;-2.742;2022-09-12T03:22:02;18.10;69.00
33863;DHT22;20158;51.436;-2.742;2022-09-12T03:28:05;18.10;69.00
33863;DHT22;20158;51.436;-2.742;2022-09-12T03:30:40;18.10;69.10
33863;DHT22;20158;51.436;-2.742;2022-09-12T03:33:10;18.10;69.00
33863;DHT22;20158;51.436;-2.742;2022-09-12T03:35:38;18.10;69.00
33863;DHT22;20158;51.436;-2.742;2022-09-12T03:38:07;18.10;69.10
33863;DHT22;20158;51.436;-2.742;2022-09-12T03:40:34;18.10;69.10
33863;DHT22;20158;51.436;-2.742;2022-09-12T03:43:03;18.10;69.10
33863;DHT22;20158;51.436;-2.742;2022-09-12T03:45:29;18.10;69.20
33863;DHT22;20158;51.436;-2.742;2022-09-12T03:47:56;18.10;69.20
33863;DHT22;20158;51.436;-2.742;2022-09-12T03:50:23;18.10;69.20
33863;DHT22;20158;51.436;-2.742;2022-09-12T03:52:50;18.10;69.30
33863;DHT22;20158;51.436;-2.742;2022-09-12T03:55:17;18.10;69.30
33863;DHT22;20158;51.436;-2.742;2022-09-12T03:57:44;18.10;69.40
33863;DHT22;20158;51.436;-2.742;2022-09-12T04:00:14;18.10;69.40
33863;DHT22;20158;51.436;-2.742;2022-09-12T04:02:42;18.10;69.50
33863;DHT22;20158;51.436;-2.742;2022-09-12T04:05:08;18.10;69.50
33863;DHT22;20158;51.436;-2.742;2022-09-12T04:07:34;18.00;69.40
33863;DHT22;20158;51.436;-2.742;2022-09-12T04:10:00;18.00;69.40
33863;DHT22;20158;51.436;-2.742;2022-09-12T04:12:28;18.00;69.50
33863;DHT22;20158;51.436;-2.742;2022-09-12T04:14:55;18.00;69.50
33863;DHT22;20158;51.436;-2.742;2022-09-12T04:17:22;18.00;69.60
33863;DHT22;20158;51.436;-2.742;2022-09-12T04:19:50;18.00;69.60
33863;DHT22;20158;51.436;-2.742;2022-09-12T04:22:16;18.00;69.70
33863;DHT22;20158;51.436;-2.742;2022-09-12T04:24:45;17.90;69.60
33863;DHT22;20158;51.436;-2.742;2022-09-12T04:27:11;17.90;69.60
33863;DHT22;20158;51.436;-2.742;2022-09-12T04:29:36;18.00;69.90
33863;DHT22;20158;51.436;-2.742;2022-09-12T04:32:04;17.90;69.70
33863;DHT22;20158;51.436;-2.742;2022-09-12T04:34:33;17.90;69.80
33863;DHT22;20158;51.436;-2.742;2022-09-12T04:37:04;17.90;69.80
33863;DHT22;20158;51.436;-2.742;2022-09-12T04:39:32;17.90;69.80
33863;DHT22;20158;51.436;-2.742;2022-09-12T04:41:59;17.90;69.90
33863;DHT22;20158;51.436;-2.742;2022-09-12T04:44:24;17.90;69.90
33863;DHT22;20158;51.436;-2.742;2022-09-12T04:46:50;17.90;70.00
33863;DHT22;20158;51.436;-2.742;2022-09-12T04:49:17;17.90;70.00
33863;DHT22;20158;51.436;-2.742;2022-09-12T04:51:45;17.90;70.00
33863;DHT22;20158;51.436;-2.742;2022-09-12T04:54:15;17.90;70.10
33863;DHT22;20158;51.436;-2.742;2022-09-12T04:56:44;17.90;70.10
33863;DHT22;20158;51.436;-2.742;2022-09-12T04:59:11;17.80;69.90
33863;DHT22;20158;51.436;-2.742;2022-09-12T05:01:38;17.80;69.90
33863;DHT22;20158;51.436;-2.742;2022-09-12T05:04:06;17.90;70.10
33863;DHT22;20158;51.436;-2.742;2022-09-12T05:06:35;17.80;70.00
33863;DHT22;20158;51.436;-2.742;2022-09-12T05:09:03;17.80;70.10
33863;DHT22;20158;51.436;-2.742;2022-09-12T05:11:31;17.80;70.20
33863;DHT22;20158;51.436;-2.742;2022-09-12T05:13:59;17.70;70.10
33863;DHT22;20158;51.436;-2.742;2022-09-12T05:16:30;17.70;70.10
33863;DHT22;20158;51.436;-2.742;2022-09-12T05:18:58;17.70;70.20
33863;DHT22;20158;51.436;-2.742;2022-09-12T05:21:25;17.70;70.20
33863;DHT22;20158;51.436;-2.742;2022-09-12T05:23:56;17.70;70.30
33863;DHT22;20158;51.436;-2.742;2022-09-12T05:26:26;17.60;70.20
33863;DHT22;20158;51.436;-2.742;2022-09-12T05:28:53;17.60;70.20
33863;DHT22;20158;51.436;-2.742;2022-09-12T05:31:22;17.60;70.30
33863;DHT22;20158;51.436;-2.742;2022-09-12T05:33:50;17.60;70.40
33863;DHT22;20158;51.436;-2.742;2022-09-12T05:36:22;17.60;70.40
33863;DHT22;20158;51.436;-2.742;2022-09-12T05:38:49;17.60;70.50
33863;DHT22;20158;51.436;-2.742;2022-09-12T05:41:17;17.50;70.30
33863;DHT22;20158;51.436;-2.742;2022-09-12T05:43:44;17.50;70.40
33863;DHT22;20158;51.436;-2.742;2022-09-12T05:46:17;17.50;70.50
33863;DHT22;20158;51.436;-2.742;2022-09-12T05:48:46;17.50;70.50
33863;DHT22;20158;51.436;-2.742;2022-09-12T05:51:20;17.50;70.50
33863;DHT22;20158;51.436;-2.742;2022-09-12T05:53:57;17.50;70.50
33863;DHT22;20158;51.436;-2.742;2022-09-12T05:56:25;17.50;70.60
33863;DHT22;20158;51.436;-2.742;2022-09-12T05:59:03;17.50;70.50
33863;DHT22;20158;51.436;-2.742;2022-09-12T06:01:31;17.50;70.60
33863;DHT22;20158;51.436;-2.742;2022-09-12T06:03:59;17.50;70.50
33863;DHT22;20158;51.436;-2.742;2022-09-12T06:06:26;17.50;70.60
33863;DHT22;20158;51.436;-2.742;2022-09-12T06:08:56;17.50;70.50
33863;DHT22;20158;51.436;-2.742;2022-09-12T06:11:26;17.50;70.60
33863;DHT22;20158;51.436;-2.742;2022-09-12T06:13:56;17.50;70.60
33863;DHT22;20158;51.436;-2.742;2022-09-12T06:16:25;17.50;70.60
33863;DHT22;20158;51.436;-2.742;2022-09-12T06:19:03;17.50;70.60
33863;DHT22;20158;51.436;-2.742;2022-09-12T06:21:32;17.50;70.60
33863;DHT22;20158;51.436;-2.742;2022-09-12T06:24:00;17.50;70.60
33863;DHT22;20158;51.436;-2.742;2022-09-12T06:26:27;17.50;70.60
33863;DHT22;20158;51.436;-2.742;2022-09-12T06:28:55;17.60;71.00
33863;DHT22;20158;51.436;-2.742;2022-09-12T06:31:27;17.60;71.70
33863;DHT22;20158;51.436;-2.742;2022-09-12T06:33:55;17.80;72.90
33863;DHT22;20158;51.436;-2.742;2022-09-12T06:36:24;17.90;73.30
33863;DHT22;20158;51.436;-2.742;2022-09-12T06:39:04;18.00;73.80
33863;DHT22;20158;51.436;-2.742;2022-09-12T06:41:33;18.20;74.50
33863;DHT22;20158;51.436;-2.742;2022-09-12T06:44:01;18.20;74.10
33863;DHT22;20158;51.436;-2.742;2022-09-12T06:46:29;18.30;74.20
33863;DHT22;20158;51.436;-2.742;2022-09-12T06:48:59;18.30;74.10
33863;DHT22;20158;51.436;-2.742;2022-09-12T06:51:26;18.40;74.20
33863;DHT22;20158;51.436;-2.742;2022-09-12T06:53:56;18.40;74.10
33863;DHT22;20158;51.436;-2.742;2022-09-12T06:56:24;18.50;74.30
33863;DHT22;20158;51.436;-2.742;2022-09-12T06:58:51;18.50;74.70
33863;DHT22;20158;51.436;-2.742;2022-09-12T07:01:30;18.50;74.00
33863;DHT22;20158;51.436;-2.742;2022-09-12T07:03:58;18.60;74.20
33863;DHT22;20158;51.436;-2.742;2022-09-12T07:06:30;18.60;74.10
33863;DHT22;20158;51.436;-2.742;2022-09-12T07:09:03;18.60;74.00
33863;DHT22;20158;51.436;-2.742;2022-09-12T07:11:32;18.60;73.90
33863;DHT22;20158;51.436;-2.742;2022-09-12T07:14:00;18.70;73.90
33863;DHT22;20158;51.436;-2.742;2022-09-12T07:16:27;18.70;73.80
33863;DHT22;20158;51.436;-2.742;2022-09-12T07:18:55;18.80;73.90
33863;DHT22;20158;51.436;-2.742;2022-09-12T07:21:22;18.90;73.90
33863;DHT22;20158;51.436;-2.742;2022-09-12T07:23:49;18.90;73.90
33863;DHT22;20158;51.436;-2.742;2022-09-12T07:26:17;19.00;73.80
33863;DHT22;20158;51.436;-2.742;2022-09-12T07:28:43;19.10;73.80
33863;DHT22;20158;51.436;-2.742;2022-09-12T07:31:11;19.20;73.70
33863;DHT22;20158;51.436;-2.742;2022-09-12T07:33:39;19.30;73.60
33863;DHT22;20158;51.436;-2.742;2022-09-12T07:36:07;19.40;73.60
33863;DHT22;20158;51.436;-2.742;2022-09-12T07:38:35;19.50;73.50
33863;DHT22;20158;51.436;-2.742;2022-09-12T07:41:19;19.60;73.40
33863;DHT22;20158;51.436;-2.742;2022-09-12T07:43:46;19.80;73.60
33863;DHT22;20158;51.436;-2.742;2022-09-12T07:46:14;19.90;73.40
33863;DHT22;20158;51.436;-2.742;2022-09-12T07:48:40;20.00;73.40
33863;DHT22;20158;51.436;-2.742;2022-09-12T07:51:09;20.10;73.30
33863;DHT22;20158;51.436;-2.742;2022-09-12T07:53:39;20.20;73.20
33863;DHT22;20158;51.436;-2.742;2022-09-12T07:56:08;20.20;73.00
33863;DHT22;20158;51.436;-2.742;2022-09-12T07:58:35;20.30;73.00
33863;DHT22;20158;51.436;-2.742;2022-09-12T08:01:11;20.40;73.10
33863;DHT22;20158;51.436;-2.742;2022-09-12T08:03:41;20.40;73.00
33863;DHT22;20158;51.436;-2.742;2022-09-12T08:06:08;20.50;73.00
33863;DHT22;20158;51.436;-2.742;2022-09-12T08:08:35;20.50;72.80
33863;DHT22;20158;51.436;-2.742;2022-09-12T08:11:04;20.70;73.00
33863;DHT22;20158;51.436;-2.742;2022-09-12T08:13:31;20.80;72.90
33863;DHT22;20158;51.436;-2.742;2022-09-12T08:15:59;20.90;72.90
33863;DHT22;20158;51.436;-2.742;2022-09-12T08:18:26;21.00;72.80
33863;DHT22;20158;51.436;-2.742;2022-09-12T08:21:01;21.10;72.80
33863;DHT22;20158;51.436;-2.742;2022-09-12T08:23:27;21.20;72.80
33863;DHT22;20158;51.436;-2.742;2022-09-12T08:25:58;21.20;72.60
33863;DHT22;20158;51.436;-2.742;2022-09-12T08:28:25;21.30;72.50
33863;DHT22;20158;51.436;-2.742;2022-09-12T08:30:52;21.40;72.50
33863;DHT22;20158;51.436;-2.742;2022-09-12T08:33:18;21.60;72.50
33863;DHT22;20158;51.436;-2.742;2022-09-12T08:35:44;21.70;72.50
33863;DHT22;20158;51.436;-2.742;2022-09-12T08:38:11;21.80;72.30
33863;DHT22;20158;51.436;-2.742;2022-09-12T08:40:52;21.90;72.20
33863;DHT22;20158;51.436;-2.742;2022-09-12T08:46:28;22.10;71.90
33863;DHT22;20158;51.436;-2.742;2022-09-12T08:48:57;22.20;71.90
33863;DHT22;20158;51.436;-2.742;2022-09-12T08:51:27;22.30;71.90
33863;DHT22;20158;51.436;-2.742;2022-09-12T08:53:55;22.40;71.90
33863;DHT22;20158;51.436;-2.742;2022-09-12T08:56:23;22.40;71.70
33863;DHT22;20158;51.436;-2.742;2022-09-12T08:58:50;22.50;71.60
33863;DHT22;20158;51.436;-2.742;2022-09-12T09:04:17;22.70;71.70
33863;DHT22;20158;51.436;-2.742;2022-09-12T09:07:27;22.80;71.60
33863;DHT22;20158;51.436;-2.742;2022-09-12T09:10:08;22.80;71.30
33863;DHT22;20158;51.436;-2.742;2022-09-12T09:15:40;22.90;71.20
33863;DHT22;20158;51.436;-2.742;2022-09-12T09:20:59;23.00;71.10
33863;DHT22;20158;51.436;-2.742;2022-09-12T09:23:49;23.00;70.90
33863;DHT22;20158;51.436;-2.742;2022-09-12T09:26:28;23.10;71.00
33863;DHT22;20158;51.436;-2.742;2022-09-12T09:31:23;23.20;71.40
33863;DHT22;20158;51.436;-2.742;2022-09-12T09:33:52;23.20;70.60
33863;DHT22;20158;51.436;-2.742;2022-09-12T09:44:31;23.50;70.30
33863;DHT22;20158;51.436;-2.742;2022-09-12T09:46:58;23.50;70.30
33863;DHT22;20158;51.436;-2.742;2022-09-12T09:49:28;23.50;70.20
33863;DHT22;20158;51.436;-2.742;2022-09-12T09:51:56;23.50;70.20
33863;DHT22;20158;51.436;-2.742;2022-09-12T09:54:45;23.50;70.20
33863;DHT22;20158;51.436;-2.742;2022-09-12T09:57:49;23.50;70.10
33863;DHT22;20158;51.436;-2.742;2022-09-12T10:05:54;23.80;70.10
33863;DHT22;20158;51.436;-2.742;2022-09-12T10:08:31;23.90;70.00
33863;DHT22;20158;51.436;-2.742;2022-09-12T10:11:08;24.10;70.10
33863;DHT22;20158;51.436;-2.742;2022-09-12T10:13:56;24.20;70.00
33863;DHT22;20158;51.436;-2.742;2022-09-12T10:16:31;24.40;69.80
33863;DHT22;20158;51.436;-2.742;2022-09-12T10:18:59;24.50;69.50
33863;DHT22;20158;51.436;-2.742;2022-09-12T10:26:53;25.00;69.20
33863;DHT22;20158;51.436;-2.742;2022-09-12T10:29:25;25.10;68.90
33863;DHT22;20158;51.436;-2.742;2022-09-12T10:31:54;25.30;68.70
33863;DHT22;20158;51.436;-2.742;2022-09-12T10:34:27;25.30;68.40
33863;DHT22;20158;51.436;-2.742;2022-09-12T10:37:09;25.40;68.20
33863;DHT22;20158;51.436;-2.742;2022-09-12T10:39:41;25.50;68.10
33863;DHT22;20158;51.436;-2.742;2022-09-12T10:42:14;25.50;67.90
33863;DHT22;20158;51.436;-2.742;2022-09-12T10:44:52;25.60;67.80
33863;DHT22;20158;51.436;-2.742;2022-09-12T10:47:21;25.60;67.60
33863;DHT22;20158;51.436;-2.742;2022-09-12T10:49:48;25.70;67.60
33863;DHT22;20158;51.436;-2.742;2022-09-12T10:52:23;25.80;67.50
33863;DHT22;20158;51.436;-2.742;2022-09-12T10:54:50;25.90;67.20
33863;DHT22;20158;51.436;-2.742;2022-09-12T11:00:17;26.20;66.50
33863;DHT22;20158;51.436;-2.742;2022-09-12T11:05:54;26.70;65.50
33863;DHT22;20158;51.436;-2.742;2022-09-12T11:20:03;28.00;63.20
33863;DHT22;20158;51.436;-2.742;2022-09-12T11:23:07;28.20;62.80
33863;DHT22;20158;51.436;-2.742;2022-09-12T11:33:43;28.60;61.90
33863;DHT22;20158;51.436;-2.742;2022-09-12T11:36:43;28.70;61.60
33863;DHT22;20158;51.436;-2.742;2022-09-12T11:39:13;28.70;61.30
33863;DHT22;20158;51.436;-2.742;2022-09-12T11:41:46;28.90;61.30
33863;DHT22;20158;51.436;-2.742;2022-09-12T11:44:25;28.90;61.10
33863;DHT22;20158;51.436;-2.742;2022-09-12T11:46:53;29.00;60.80
33863;DHT22;20158;51.436;-2.742;2022-09-12T11:49:44;29.10;60.70
33863;DHT22;20158;51.436;-2.742;2022-09-12T11:52:21;29.20;60.30
33863;DHT22;20158;51.436;-2.742;2022-09-12T11:57:55;29.30;59.90
33863;DHT22;20158;51.436;-2.742;2022-09-12T12:00:27;29.40;59.60
33863;DHT22;20158;51.436;-2.742;2022-09-12T12:03:08;29.50;59.80
33863;DHT22;20158;51.436;-2.742;2022-09-12T12:06:02;29.50;59.60
33863;DHT22;20158;51.436;-2.742;2022-09-12T12:08:37;29.50;59.40
33863;DHT22;20158;51.436;-2.742;2022-09-12T12:11:06;29.60;59.50
33863;DHT22;20158;51.436;-2.742;2022-09-12T12:13:40;29.60;59.40
33863;DHT22;20158;51.436;-2.742;2022-09-12T12:16:37;29.70;59.20
33863;DHT22;20158;51.436;-2.742;2022-09-12T12:21:41;29.80;58.70
33863;DHT22;20158;51.436;-2.742;2022-09-12T12:26:41;30.00;58.50
33863;DHT22;20158;51.436;-2.742;2022-09-12T12:34:32;30.20;57.60
33863;DHT22;20158;51.436;-2.742;2022-09-12T12:39:56;30.20;57.50
33863;DHT22;20158;51.436;-2.742;2022-09-12T12:50:27;30.60;57.30
33863;DHT22;20158;51.436;-2.742;2022-09-12T12:55:46;30.80;56.90
33863;DHT22;20158;51.436;-2.742;2022-09-12T12:58:34;30.90;57.00
33863;DHT22;20158;51.436;-2.742;2022-09-12T13:01:15;31.00;56.30
33863;DHT22;20158;51.436;-2.742;2022-09-12T13:03:57;31.20;56.10
33863;DHT22;20158;51.436;-2.742;2022-09-12T13:06:53;31.20;55.90
33863;DHT22;20158;51.436;-2.742;2022-09-12T13:09:25;31.30;55.70
33863;DHT22;20158;51.436;-2.742;2022-09-12T13:12:24;31.30;55.90
33863;DHT22;20158;51.436;-2.742;2022-09-12T13:18:05;31.00;55.60
33863;DHT22;20158;51.436;-2.742;2022-09-12T13:20:35;30.80;55.90
33863;DHT22;20158;51.436;-2.742;2022-09-12T13:23:03;30.70;56.00
33863;DHT22;20158;51.436;-2.742;2022-09-12T13:25:34;30.50;56.30
33863;DHT22;20158;51.436;-2.742;2022-09-12T13:28:15;30.30;56.40
33863;DHT22;20158;51.436;-2.742;2022-09-12T13:30:42;30.10;56.60
33863;DHT22;20158;51.436;-2.742;2022-09-12T13:33:29;29.90;56.90
33863;DHT22;20158;51.436;-2.742;2022-09-12T13:36:49;29.80;57.10
33863;DHT22;20158;51.436;-2.742;2022-09-12T13:39:27;29.60;57.30
33863;DHT22;20158;51.436;-2.742;2022-09-12T13:44:51;29.30;57.80
33863;DHT22;20158;51.436;-2.742;2022-09-12T13:47:26;29.30;58.20
33863;DHT22;20158;51.436;-2.742;2022-09-12T13:49:57;29.30;58.20
33863;DHT22;20158;51.436;-2.742;2022-09-12T13:52:27;29.30;58.20
33863;DHT22;20158;51.436;-2.742;2022-09-12T13:54:57;29.30;58.10
33863;DHT22;20158;51.436;-2.742;2022-09-12T13:57:37;29.50;58.10
33863;DHT22;20158;51.436;-2.742;2022-09-12T14:00:15;29.50;58.00
33863;DHT22;20158;51.436;-2.742;2022-09-12T14:02:46;29.50;58.50
33863;DHT22;20158;51.436;-2.742;2022-09-12T14:05:20;29.70;57.90
33863;DHT22;20158;51.436;-2.742;2022-09-12T14:07:56;29.80;57.80
33863;DHT22;20158;51.436;-2.742;2022-09-12T14:10:27;29.90;57.60
33863;DHT22;20158;51.436;-2.742;2022-09-12T14:12:55;29.90;57.60
33863;DHT22;20158;51.436;-2.742;2022-09-12T14:15:33;30.00;57.50
33863;DHT22;20158;51.436;-2.742;2022-09-12T14:18:01;30.00;57.30
33863;DHT22;20158;51.436;-2.742;2022-09-12T14:20:34;29.90;57.30
33863;DHT22;20158;51.436;-2.742;2022-09-12T14:23:03;29.90;57.30
33863;DHT22;20158;51.436;-2.742;2022-09-12T14:25:37;29.90;57.30
33863;DHT22;20158;51.436;-2.742;2022-09-12T14:28:09;29.90;57.30
33863;DHT22;20158;51.436;-2.742;2022-09-12T14:30:36;29.90;57.30
33863;DHT22;20158;51.436;-2.742;2022-09-12T14:35:40;30.10;57.00
33863;DHT22;20158;51.436;-2.742;2022-09-12T14:38:21;30.10;56.90
33863;DHT22;20158;51.436;-2.742;2022-09-12T14:40:58;30.20;56.80
33863;DHT22;20158;51.436;-2.742;2022-09-12T14:43:32;30.30;56.90
33863;DHT22;20158;51.436;-2.742;2022-09-12T14:46:01;30.20;56.80
33863;DHT22;20158;51.436;-2.742;2022-09-12T14:48:29;30.20;56.90
33863;DHT22;20158;51.436;-2.742;2022-09-12T14:50:57;30.20;56.90
33863;DHT22;20158;51.436;-2.742;2022-09-12T14:53:29;30.20;56.90
33863;DHT22;20158;51.436;-2.742;2022-09-12T14:58:30;30.00;57.00
33863;DHT22;20158;51.436;-2.742;2022-09-12T15:03:49;29.80;57.20
33863;DHT22;20158;51.436;-2.742;2022-09-12T15:06:36;29.60;57.30
33863;DHT22;20158;51.436;-2.742;2022-09-12T15:09:11;29.50;57.60
33863;DHT22;20158;51.436;-2.742;2022-09-12T15:11:37;29.40;57.90
33863;DHT22;20158;51.436;-2.742;2022-09-12T15:14:12;29.40;58.10
33863;DHT22;20158;51.436;-2.742;2022-09-12T15:16:38;29.40;58.20
33863;DHT22;20158;51.436;-2.742;2022-09-12T15:19:04;29.40;58.20
33863;DHT22;20158;51.436;-2.742;2022-09-12T15:21:33;29.40;58.20
33863;DHT22;20158;51.436;-2.742;2022-09-12T15:23:59;29.40;58.30
33863;DHT22;20158;51.436;-2.742;2022-09-12T15:26:25;29.40;58.20
33863;DHT22;20158;51.436;-2.742;2022-09-12T15:28:56;29.40;58.20
33863;DHT22;20158;51.436;-2.742;2022-09-12T15:33:50;29.40;58.30
33863;DHT22;20158;51.436;-2.742;2022-09-12T15:36:18;29.40;58.30
33863;DHT22;20158;51.436;-2.742;2022-09-12T15:38:50;29.40;58.30
33863;DHT22;20158;51.436;-2.742;2022-09-12T15:41:17;29.40;58.40
33863;DHT22;20158;51.436;-2.742;2022-09-12T15:43:44;29.30;58.30
33863;DHT22;20158;51.436;-2.742;2022-09-12T15:46:12;29.40;58.40
33863;DHT22;20158;51.436;-2.742;2022-09-12T15:48:38;29.30;58.30
33863;DHT22;20158;51.436;-2.742;2022-09-12T15:51:11;29.40;58.40
33863;DHT22;20158;51.436;-2.742;2022-09-12T15:53:38;29.40;58.20
33863;DHT22;20158;51.436;-2.742;2022-09-12T15:56:04;29.40;57.90
33863;DHT22;20158;51.436;-2.742;2022-09-12T15:58:30;29.30;57.90
33863;DHT22;20158;51.436;-2.742;2022-09-12T16:00:56;29.30;58.10
33863;DHT22;20158;51.436;-2.742;2022-09-12T16:03:27;29.20;58.20
33863;DHT22;20158;51.436;-2.742;2022-09-12T16:05:59;29.20;58.30
33863;DHT22;20158;51.436;-2.742;2022-09-12T16:08:27;29.20;58.40
33863;DHT22;20158;51.436;-2.742;2022-09-12T16:11:03;29.20;58.50
33863;DHT22;20158;51.436;-2.742;2022-09-12T16:13:31;29.20;58.60
33863;DHT22;20158;51.436;-2.742;2022-09-12T16:15:57;29.20;58.60
33863;DHT22;20158;51.436;-2.742;2022-09-12T16:18:24;29.10;58.60
33863;DHT22;20158;51.436;-2.742;2022-09-12T16:20:51;29.10;58.70
33863;DHT22;20158;51.436;-2.742;2022-09-12T16:23:18;29.10;58.80
33863;DHT22;20158;51.436;-2.742;2022-09-12T16:25:43;29.00;58.80
33863;DHT22;20158;51.436;-2.742;2022-09-12T16:28:11;29.00;59.00
33863;DHT22;20158;51.436;-2.742;2022-09-12T16:30:37;28.80;59.00
33863;DHT22;20158;51.436;-2.742;2022-09-12T16:33:03;28.80;59.30
33863;DHT22;20158;51.436;-2.742;2022-09-12T16:35:30;28.70;59.40
33863;DHT22;20158;51.436;-2.742;2022-09-12T16:37:58;28.70;59.50
33863;DHT22;20158;51.436;-2.742;2022-09-12T16:40:25;28.60;59.60
33863;DHT22;20158;51.436;-2.742;2022-09-12T16:42:52;28.50;59.70
33863;DHT22;20158;51.436;-2.742;2022-09-12T16:45:20;28.50;59.90
33863;DHT22;20158;51.436;-2.742;2022-09-12T16:47:47;28.40;59.90
33863;DHT22;20158;51.436;-2.742;2022-09-12T16:50:13;28.30;60.00
33863;DHT22;20158;51.436;-2.742;2022-09-12T16:52:39;28.20;60.10
33863;DHT22;20158;51.436;-2.742;2022-09-12T16:55:06;28.20;60.20
33863;DHT22;20158;51.436;-2.742;2022-09-12T16:57:33;28.10;60.30
33863;DHT22;20158;51.436;-2.742;2022-09-12T17:00:02;28.00;60.40
33863;DHT22;20158;51.436;-2.742;2022-09-12T17:02:29;27.90;60.40
33863;DHT22;20158;51.436;-2.742;2022-09-12T17:04:56;27.80;60.40
33863;DHT22;20158;51.436;-2.742;2022-09-12T17:07:22;27.70;60.50
33863;DHT22;20158;51.436;-2.742;2022-09-12T17:09:48;27.60;60.60
33863;DHT22;20158;51.436;-2.742;2022-09-12T17:12:15;27.50;60.80
33863;DHT22;20158;51.436;-2.742;2022-09-12T17:14:41;27.40;60.90
33863;DHT22;20158;51.436;-2.742;2022-09-12T17:17:06;27.20;60.90
33863;DHT22;20158;51.436;-2.742;2022-09-12T17:19:32;27.10;61.00
33863;DHT22;20158;51.436;-2.742;2022-09-12T17:21:58;27.00;61.10
33863;DHT22;20158;51.436;-2.742;2022-09-12T17:24:25;26.90;61.20
33863;DHT22;20158;51.436;-2.742;2022-09-12T17:26:51;26.90;61.30
33863;DHT22;20158;51.436;-2.742;2022-09-12T17:29:18;26.70;61.30
33863;DHT22;20158;51.436;-2.742;2022-09-12T17:31:44;26.70;61.40
33863;DHT22;20158;51.436;-2.742;2022-09-12T17:34:11;26.50;61.40
33863;DHT22;20158;51.436;-2.742;2022-09-12T17:36:39;26.40;61.60
33863;DHT22;20158;51.436;-2.742;2022-09-12T17:39:09;26.40;61.90
33863;DHT22;20158;51.436;-2.742;2022-09-12T17:41:36;26.20;62.10
33863;DHT22;20158;51.436;-2.742;2022-09-12T17:44:03;26.20;62.40
33863;DHT22;20158;51.436;-2.742;2022-09-12T17:46:35;26.10;62.70
33863;DHT22;20158;51.436;-2.742;2022-09-12T17:49:05;26.10;63.30
33863;DHT22;20158;51.436;-2.742;2022-09-12T17:51:31;26.00;63.40
33863;DHT22;20158;51.436;-2.742;2022-09-12T17:54:06;26.00;63.80
33863;DHT22;20158;51.436;-2.742;2022-09-12T17:56:34;25.90;64.10
33863;DHT22;20158;51.436;-2.742;2022-09-12T17:59:03;25.90;64.30
33863;DHT22;20158;51.436;-2.742;2022-09-12T18:01:32;25.90;64.70